SBFZ/FOR METAR and TAF weather

Enter ICAO airport designator
Station Type Date Time Source
SBFZ METAR 2020/11/25 22:00 UTC NOAA

SBFZ 252200Z 08007KT 9999 FEW020 27/23 Q1011


Station Type Date Time Source
SBFZ Decoded METAR 2020/11/25 22:00 UTC NOAA

Fortaleza / pinto Martins , Brazil (SBFZ) 03-47S 038-32W 25M
Nov 25, 2020 - 05:00 PM EST / 2020.11.25 2200 UTC
Wind: from the E (080 degrees) at 8 MPH (7 KT):0
Visibility: greater than 7 mile(s):0
Sky conditions: mostly clear
Temperature: 80 F (27 C)
Dew Point: 73 F (23 C)
Relative Humidity: 78%
Pressure (altimeter): 29.85 in. Hg (1011 hPa)
ob: SBFZ 252200Z 08007KT 9999 FEW020 27/23 Q1011
cycle: 22

Station Type Date Time Source
SBFZ TAF 2020/11/25 18:09 UTC NOAA

TAF SBFZ 251500Z 2518/2618 09020KT 9999 FEW025 TN27/2609Z TX32/2616Z
BECMG 2520/2522 07010KT
BECMG 2604/2606 11010KT SCT020
BECMG 2612/2614 13015KT BKN020
BECMG 2616/2618 08020KT FEW030
RMK PFV

Example: see airport list